CRI weather

Cristo Redentor Airport
Cristo Redentor, Mendoza Province, Argentina

Public forecast

Using degrees Celsius for public forecast. Weather courtesy of forecast.io.

METAR (pilot weather report)

Closest report is Eulogio Sánchez Airport, 45.8 nm (84.8 km) SSW. Retrieved 2019/07/17 13:00 UTC (59 minutes ago):

SCTB 171300Z 26004KT 6000 BKN150 09/04 Q1021

TAF (pilot weather forecast)

Closest forecast is Comodoro Arturo Merino Benítez International Airport, 50.4 nm (93.3 km) SW. Retrieved 2019/07/17 12:00 UTC (2 hours ago):

TAF COR SCEL 171127Z 1712/1812 VRB02KT 5000 HZ SCT180 BKN200 TX18/ 1719Z TN02/1810Z TEMPO 1712/1714 3000 BR BECMG 1715/1717 7000 BKN180 BECMG 1719/1720 18006KT 9999 BECMG 1801/1803 15004KT SCT160 TEMPO 1808/1812 4000 BR FEW130